createdAt,value
2023-10-24T00:01:57.429Z,9.67
2023-10-24T00:03:59.566Z,8.50
2023-10-24T00:06:04.133Z,9.33
2023-10-24T00:08:06.186Z,8.43
2023-10-24T00:10:08.834Z,9.80
2023-10-24T00:12:10.856Z,10.43
2023-10-24T00:14:12.918Z,8.87
2023-10-24T00:16:15.065Z,10.10
2023-10-24T00:18:17.047Z,9.40
2023-10-24T00:20:19.218Z,9.53
2023-10-24T00:22:21.298Z,9.87
2023-10-24T00:24:23.451Z,11.03
2023-10-24T00:26:25.504Z,10.03
2023-10-24T00:28:28.923Z,9.70
2023-10-24T00:30:31.043Z,9.70
2023-10-24T00:32:33.264Z,10.40
2023-10-24T00:34:35.368Z,9.23
2023-10-24T00:36:41.375Z,8.87
2023-10-24T00:38:44.844Z,9.23
2023-10-24T00:40:46.975Z,9.30
2023-10-24T00:42:49.222Z,8.80
2023-10-24T00:44:51.231Z,9.43
2023-10-24T00:46:53.408Z,8.90
2023-10-24T00:48:55.775Z,8.53
2023-10-24T00:50:57.870Z,10.07
2023-10-24T00:53:00.798Z,8.90
2023-10-24T00:55:03.509Z,9.70
2023-10-24T00:57:07.681Z,9.87
2023-10-24T00:59:10.002Z,9.63
2023-10-24T01:01:14.272Z,9.90
2023-10-24T01:03:22.624Z,8.80
2023-10-24T01:05:25.278Z,9.20
2023-10-24T01:07:28.351Z,9.53
2023-10-24T01:09:30.675Z,8.77
2023-10-24T01:11:33.153Z,8.87
2023-10-24T01:13:35.680Z,8.83
2023-10-24T01:15:37.880Z,8.73
2023-10-24T01:17:53.840Z,9.80
2023-10-24T01:19:56.108Z,8.97
2023-10-24T01:21:58.311Z,8.77
2023-10-24T01:24:01.060Z,8.53
2023-10-24T01:26:04.888Z,8.70
2023-10-24T01:28:07.937Z,8.40
2023-10-24T01:30:11.840Z,8.70
2023-10-24T01:32:14.016Z,8.53
2023-10-24T01:34:16.418Z,8.63
2023-10-24T01:36:19.297Z,8.70
2023-10-24T01:38:22.565Z,8.33
2023-10-24T01:40:24.750Z,8.70
2023-10-24T01:42:26.981Z,8.10
2023-10-24T01:44:29.014Z,8.40
2023-10-24T01:46:31.199Z,8.50
2023-10-24T01:48:33.432Z,7.70
2023-10-24T01:50:35.462Z,8.73
2023-10-24T01:52:37.529Z,8.47
2023-10-24T01:54:40.024Z,8.47
2023-10-24T01:56:42.647Z,8.20
2023-10-24T01:58:44.821Z,8.27
2023-10-24T02:00:47.012Z,8.77
2023-10-24T02:02:49.423Z,7.60
2023-10-24T02:04:51.622Z,8.50
2023-10-24T02:06:53.663Z,8.37
2023-10-24T02:08:55.810Z,8.70
2023-10-24T02:10:58.646Z,7.90
2023-10-24T02:13:00.793Z,8.03
2023-10-24T02:15:05.293Z,8.27
2023-10-24T02:17:08.058Z,8.20
2023-10-24T02:19:10.176Z,9.73
2023-10-24T02:21:12.593Z,8.73
2023-10-24T02:23:14.698Z,8.80
2023-10-24T02:25:16.826Z,9.20
2023-10-24T02:27:19.014Z,9.20
2023-10-24T02:29:21.266Z,8.97
2023-10-24T02:31:23.388Z,8.57
2023-10-24T02:33:25.622Z,9.13
2023-10-24T02:35:28.756Z,9.17
2023-10-24T02:37:31.011Z,9.37
2023-10-24T02:39:33.142Z,8.83
2023-10-24T02:41:35.211Z,9.03
2023-10-24T02:43:37.374Z,8.40
2023-10-24T02:45:39.744Z,7.80
2023-10-24T02:47:41.923Z,8.90
2023-10-24T02:49:44.367Z,8.17
2023-10-24T02:51:46.483Z,9.63
2023-10-24T02:53:48.562Z,8.00
2023-10-24T02:55:51.308Z,8.03
2023-10-24T02:57:53.375Z,7.93
2023-10-24T02:59:55.499Z,8.17
2023-10-24T03:01:57.601Z,7.50
2023-10-24T03:03:59.796Z,8.00
2023-10-24T03:06:02.109Z,8.80
2023-10-24T03:08:05.076Z,7.77
2023-10-24T03:10:07.607Z,7.30
2023-10-24T03:12:14.173Z,7.90
2023-10-24T03:14:16.266Z,7.80
2023-10-24T03:16:18.887Z,8.53
2023-10-24T03:18:20.991Z,7.90
2023-10-24T03:20:23.195Z,7.47
2023-10-24T03:22:26.332Z,7.43
2023-10-24T03:24:29.935Z,8.03
2023-10-24T03:26:32.145Z,8.80
2023-10-24T03:28:34.567Z,8.07
2023-10-24T03:30:36.701Z,9.30
2023-10-24T03:32:38.974Z,8.03
2023-10-24T03:34:41.368Z,7.80
2023-10-24T03:36:43.934Z,7.87
2023-10-24T03:38:46.133Z,8.23
2023-10-24T03:40:48.347Z,8.70
2023-10-24T03:42:50.418Z,9.00
2023-10-24T03:44:52.710Z,7.53
2023-10-24T03:46:54.859Z,8.50
2023-10-24T03:48:58.524Z,9.10
2023-10-24T03:51:01.717Z,8.77
2023-10-24T03:53:05.226Z,9.27
2023-10-24T03:55:07.508Z,8.83
2023-10-24T03:57:09.622Z,8.47
2023-10-24T03:59:11.678Z,9.63
2023-10-24T04:01:13.881Z,9.00
2023-10-24T04:03:16.156Z,9.33
2023-10-24T04:05:18.580Z,8.60
2023-10-24T04:07:21.042Z,8.90
2023-10-24T04:09:37.496Z,9.33
2023-10-24T04:11:40.617Z,8.47
2023-10-24T04:13:47.537Z,8.77
2023-10-24T04:15:52.738Z,8.00
2023-10-24T04:17:55.467Z,9.23
2023-10-24T04:19:58.044Z,8.67
2023-10-24T04:22:01.215Z,8.53
2023-10-24T04:24:04.736Z,9.00
2023-10-24T04:26:07.130Z,8.47
2023-10-24T04:28:09.621Z,8.43
2023-10-24T04:30:12.128Z,8.20
2023-10-24T04:32:14.960Z,8.27
2023-10-24T04:34:17.355Z,8.03
2023-10-24T04:36:19.532Z,8.67
2023-10-24T04:38:22.090Z,9.33
2023-10-24T04:40:24.552Z,9.27
2023-10-24T04:42:41.809Z,9.27
2023-10-24T04:44:43.917Z,8.90
2023-10-24T04:46:46.096Z,8.53
2023-10-24T04:48:48.453Z,8.67
2023-10-24T04:50:50.748Z,9.30
2023-10-24T04:52:53.401Z,8.40
2023-10-24T04:54:55.634Z,9.93
2023-10-24T04:56:59.703Z,8.87
2023-10-24T04:59:01.871Z,9.60
2023-10-24T05:01:04.466Z,9.10
2023-10-24T05:03:07.862Z,8.90
2023-10-24T05:05:10.557Z,9.27
2023-10-24T05:07:12.661Z,9.53
2023-10-24T05:09:17.474Z,10.07
2023-10-24T05:11:19.901Z,8.93
2023-10-24T05:13:22.010Z,9.20
2023-10-24T05:15:24.113Z,8.40
2023-10-24T05:17:26.285Z,8.93
2023-10-24T05:19:28.399Z,8.70
2023-10-24T05:21:30.477Z,9.17
2023-10-24T05:23:32.595Z,8.20
2023-10-24T05:25:35.149Z,8.70
2023-10-24T05:27:37.256Z,8.50
2023-10-24T05:29:40.080Z,9.13
2023-10-24T05:31:42.261Z,8.50
2023-10-24T05:33:45.326Z,9.20
2023-10-24T05:35:48.999Z,9.50
2023-10-24T05:37:51.141Z,9.30
2023-10-24T05:39:53.334Z,9.13
2023-10-24T05:41:55.699Z,8.30
2023-10-24T05:43:58.045Z,8.30
2023-10-24T05:46:00.259Z,9.80
2023-10-24T05:48:02.389Z,9.33
2023-10-24T05:50:04.987Z,8.40
2023-10-24T05:52:07.036Z,7.90
2023-10-24T05:54:09.036Z,8.30
2023-10-24T05:56:11.089Z,8.90
2023-10-24T05:58:13.159Z,9.13
2023-10-24T06:00:15.297Z,8.30
2023-10-24T06:02:17.601Z,8.53
2023-10-24T06:04:19.761Z,8.23
2023-10-24T06:06:21.781Z,8.90
2023-10-24T06:08:23.877Z,8.13
2023-10-24T06:10:26.013Z,9.63
2023-10-24T06:12:31.864Z,9.13
2023-10-24T06:14:34.349Z,9.83
2023-10-24T06:16:36.437Z,8.73
2023-10-24T06:18:39.138Z,9.47
2023-10-24T06:20:41.659Z,9.30
2023-10-24T06:22:43.761Z,9.50
2023-10-24T06:24:45.790Z,9.57
2023-10-24T06:26:47.825Z,10.23
2023-10-24T06:28:49.923Z,8.57
2023-10-24T06:31:01.931Z,9.10
2023-10-24T06:33:04.259Z,9.07
2023-10-24T06:35:06.658Z,9.70
2023-10-24T06:37:08.665Z,9.90
2023-10-24T06:39:11.835Z,10.83
2023-10-24T06:41:14.858Z,10.90
2023-10-24T06:43:17.141Z,11.37
2023-10-24T06:45:19.252Z,11.90
2023-10-24T06:47:22.436Z,12.93
2023-10-24T06:49:24.601Z,13.10
2023-10-24T06:51:26.794Z,14.07
2023-10-24T06:53:29.181Z,13.60
2023-10-24T06:55:31.359Z,12.60
2023-10-24T06:57:33.459Z,13.37
2023-10-24T06:59:35.599Z,11.97
2023-10-24T07:01:37.789Z,13.20
2023-10-24T07:03:39.969Z,11.07
2023-10-24T07:05:42.316Z,11.70
2023-10-24T07:07:44.567Z,11.57
2023-10-24T07:09:46.741Z,12.73
2023-10-24T07:11:48.828Z,10.23
2023-10-24T07:13:51.010Z,11.07
2023-10-24T07:15:53.340Z,11.10
2023-10-24T07:17:55.567Z,10.93
2023-10-24T07:20:00.127Z,11.27
2023-10-24T07:22:02.643Z,10.40
2023-10-24T07:24:04.992Z,10.27
2023-10-24T07:26:07.200Z,11.10
2023-10-24T07:28:09.334Z,11.80
2023-10-24T07:30:11.793Z,11.23
2023-10-24T07:32:17.653Z,11.50
2023-10-24T07:34:19.930Z,10.23
2023-10-24T07:36:23.002Z,10.80
2023-10-24T07:38:25.032Z,10.73
2023-10-24T07:40:27.178Z,15.30
2023-10-24T07:42:29.373Z,12.00
2023-10-24T07:44:31.341Z,10.07
2023-10-24T07:46:33.600Z,11.70
2023-10-24T07:48:35.755Z,12.70
2023-10-24T07:50:37.983Z,11.63
2023-10-24T07:52:40.256Z,11.70
2023-10-24T07:54:42.682Z,11.50
2023-10-24T07:56:45.618Z,10.77
2023-10-24T07:58:47.769Z,10.63
2023-10-24T08:00:50.283Z,9.57
2023-10-24T08:02:52.415Z,9.77
2023-10-24T08:04:54.568Z,9.17
2023-10-24T08:06:57.300Z,9.23
2023-10-24T08:08:59.307Z,9.00
2023-10-24T08:11:01.453Z,9.30
2023-10-24T08:13:03.711Z,7.60
2023-10-24T08:15:06.203Z,8.33
2023-10-24T08:17:08.550Z,8.43
2023-10-24T08:19:10.834Z,8.57
2023-10-24T08:21:14.112Z,8.60
2023-10-24T08:23:16.165Z,8.83
2023-10-24T08:25:18.557Z,8.77
2023-10-24T08:27:20.609Z,8.97
2023-10-24T08:29:22.856Z,9.13
2023-10-24T08:31:25.068Z,8.07
2023-10-24T08:33:27.413Z,8.97
2023-10-24T08:35:29.468Z,8.13
2023-10-24T08:37:31.599Z,8.40
2023-10-24T08:39:33.690Z,7.63
2023-10-24T08:41:35.798Z,8.10
2023-10-24T08:43:40.083Z,7.70
2023-10-24T08:45:43.944Z,7.93
2023-10-24T08:47:48.931Z,7.37
2023-10-24T08:49:51.732Z,8.00
2023-10-24T08:51:54.232Z,7.40
2023-10-24T08:53:56.288Z,7.17
2023-10-24T08:55:59.310Z,8.07
2023-10-24T08:58:02.533Z,7.87
2023-10-24T09:00:05.624Z,7.97
2023-10-24T09:02:11.453Z,7.20
2023-10-24T09:04:14.458Z,7.43
2023-10-24T09:06:16.646Z,7.30
2023-10-24T09:08:19.515Z,8.70
2023-10-24T09:10:21.950Z,7.40
2023-10-24T09:12:24.357Z,7.10
2023-10-24T09:14:35.015Z,7.20
2023-10-24T09:16:43.947Z,7.53
2023-10-24T09:18:46.866Z,6.57
2023-10-24T09:20:48.975Z,6.80
2023-10-24T09:22:51.163Z,6.00
2023-10-24T09:24:53.285Z,6.77
2023-10-24T09:26:57.513Z,6.10
2023-10-24T09:28:59.684Z,6.63
2023-10-24T09:31:02.158Z,5.67
2023-10-24T09:33:04.415Z,6.77
2023-10-24T09:35:07.132Z,5.90
2023-10-24T09:37:11.352Z,6.40
2023-10-24T09:39:14.623Z,6.60
2023-10-24T09:41:18.182Z,5.40
2023-10-24T09:43:24.530Z,5.27
2023-10-24T09:45:27.761Z,5.30
2023-10-24T09:47:30.857Z,4.60
2023-10-24T09:49:33.341Z,5.30
2023-10-24T09:51:39.460Z,5.27
2023-10-24T09:53:42.335Z,4.77
2023-10-24T09:55:51.717Z,4.80
2023-10-24T09:57:54.234Z,4.77
2023-10-24T09:59:59.280Z,5.40
2023-10-24T10:02:07.964Z,5.13
2023-10-24T10:04:14.809Z,4.80
2023-10-24T10:06:23.757Z,4.93
2023-10-24T10:08:36.716Z,4.67
2023-10-24T10:10:39.129Z,4.90
2023-10-24T10:12:42.112Z,5.53
2023-10-24T10:15:08.066Z,5.30
2023-10-24T10:17:21.053Z,4.60
2023-10-24T10:19:41.139Z,5.73
2023-10-24T10:22:05.334Z,6.03
2023-10-24T10:24:32.443Z,5.53
2023-10-24T10:26:42.428Z,5.90
2023-10-24T10:28:59.040Z,5.70
2023-10-24T10:32:43.435Z,5.67
2023-10-24T10:33:24.382Z,5.93
2023-10-24T10:35:55.636Z,4.80
2023-10-24T10:38:02.696Z,5.63
2023-10-24T10:40:28.802Z,6.40
2023-10-24T10:42:51.949Z,6.20
2023-10-24T10:44:54.107Z,5.50
2023-10-24T10:47:03.869Z,5.90
2023-10-24T10:49:08.285Z,6.27
2023-10-24T10:51:17.494Z,5.70
2023-10-24T10:53:33.333Z,5.40
2023-10-24T10:55:47.669Z,5.60
2023-10-24T10:58:03.539Z,6.60
2023-10-24T11:00:07.978Z,5.53
2023-10-24T11:02:52.564Z,6.70
2023-10-24T11:04:54.774Z,6.23
2023-10-24T11:06:58.336Z,6.13
2023-10-24T11:09:14.525Z,6.17
2023-10-24T11:11:20.530Z,6.00
2023-10-24T11:13:41.681Z,6.10
2023-10-24T11:15:54.068Z,5.97
2023-10-24T11:17:56.504Z,7.03
2023-10-24T11:20:18.052Z,6.30
2023-10-24T11:22:20.821Z,7.20
2023-10-24T11:24:23.689Z,6.80
2023-10-24T11:26:25.798Z,7.23
2023-10-24T11:28:28.764Z,6.63
2023-10-24T11:30:30.896Z,7.43
2023-10-24T11:32:34.363Z,7.33
2023-10-24T11:34:37.089Z,7.10
2023-10-24T11:36:41.504Z,7.00
2023-10-24T11:38:43.838Z,6.83
2023-10-24T11:40:49.024Z,8.17
2023-10-24T11:42:51.067Z,6.87
2023-10-24T11:44:53.762Z,14.10
2023-10-24T11:46:55.914Z,9.70
2023-10-24T11:48:58.108Z,9.40
2023-10-24T11:51:04.153Z,10.20
2023-10-24T11:53:06.470Z,8.70
2023-10-24T11:55:08.706Z,9.27
2023-10-24T11:57:11.746Z,8.07
2023-10-24T11:59:14.749Z,7.90
2023-10-24T12:01:19.108Z,7.83
2023-10-24T12:03:22.542Z,8.53
2023-10-24T12:05:24.650Z,12.47
2023-10-24T12:07:26.937Z,10.33
2023-10-24T12:09:29.017Z,10.23
2023-10-24T12:11:33.944Z,12.33
2023-10-24T12:13:36.086Z,17.20
2023-10-24T12:15:38.525Z,15.60
2023-10-24T12:17:44.808Z,14.60
2023-10-24T12:19:46.948Z,11.13
2023-10-24T12:21:49.034Z,10.57
2023-10-24T12:23:51.263Z,10.87
2023-10-24T12:25:53.661Z,9.20
2023-10-24T12:27:55.684Z,8.57
2023-10-24T12:29:57.789Z,8.93
2023-10-24T12:31:59.981Z,8.30
2023-10-24T12:34:02.152Z,8.00
2023-10-24T12:36:05.530Z,8.20
2023-10-24T12:38:07.898Z,8.30
2023-10-24T12:40:11.541Z,8.70
2023-10-24T12:42:13.752Z,8.47
2023-10-24T12:44:15.886Z,9.00
2023-10-24T12:46:18.263Z,8.63
2023-10-24T12:48:20.846Z,9.80
2023-10-24T12:50:23.029Z,9.13
2023-10-24T12:52:25.772Z,9.20
2023-10-24T12:54:28.099Z,8.30
2023-10-24T12:56:30.212Z,9.10
2023-10-24T12:58:32.472Z,9.40
2023-10-24T13:00:34.703Z,9.00
2023-10-24T13:02:36.834Z,8.83
2023-10-24T13:04:40.319Z,9.83
2023-10-24T13:06:43.523Z,8.60
2023-10-24T13:08:45.684Z,8.30
2023-10-24T13:10:48.823Z,9.87
2023-10-24T13:12:50.948Z,9.43
2023-10-24T13:14:53.052Z,8.87
2023-10-24T13:17:09.185Z,9.57
2023-10-24T13:19:17.574Z,8.90
2023-10-24T13:21:19.845Z,10.67
2023-10-24T13:23:21.998Z,17.17
2023-10-24T13:25:24.197Z,18.83
2023-10-24T13:27:26.354Z,12.30
2023-10-24T13:29:28.620Z,11.07
2023-10-24T13:31:30.895Z,12.23
2023-10-24T13:33:44.659Z,11.83
2023-10-24T13:38:00.918Z,11.60
2023-10-24T13:40:03.655Z,9.90
2023-10-24T13:42:05.921Z,13.07
2023-10-24T13:44:08.102Z,12.70
2023-10-24T13:46:10.350Z,12.40
2023-10-24T13:48:12.850Z,12.33
2023-10-24T13:50:15.064Z,12.20
2023-10-24T13:52:17.270Z,13.83
2023-10-24T13:54:19.401Z,12.80
2023-10-24T13:56:21.569Z,13.20
2023-10-24T13:58:23.557Z,12.80
2023-10-24T14:00:25.624Z,13.47
2023-10-24T14:02:27.936Z,13.67
2023-10-24T14:04:30.330Z,13.63
2023-10-24T14:06:32.607Z,13.23
2023-10-24T14:08:36.198Z,12.60
2023-10-24T14:10:38.501Z,13.10
2023-10-24T14:12:40.713Z,11.77
2023-10-24T14:14:43.299Z,12.73
2023-10-24T14:16:45.486Z,12.97
2023-10-24T14:18:48.091Z,13.80
2023-10-24T14:20:50.943Z,14.50
2023-10-24T14:22:55.108Z,14.40
2023-10-24T14:24:57.181Z,14.40
2023-10-24T14:26:59.355Z,18.07
2023-10-24T14:29:01.813Z,16.63
2023-10-24T14:31:04.161Z,16.30
2023-10-24T14:33:06.266Z,15.00
2023-10-24T14:35:08.833Z,14.07
2023-10-24T14:37:11.016Z,14.93
2023-10-24T14:39:13.090Z,13.93
2023-10-24T14:41:15.198Z,12.70
2023-10-24T14:43:17.350Z,12.30
2023-10-24T14:45:21.283Z,11.33
2023-10-24T14:47:23.537Z,11.67
2023-10-24T14:49:25.741Z,11.43
2023-10-24T14:51:27.980Z,10.90
2023-10-24T14:53:30.230Z,10.50
2023-10-24T14:55:32.456Z,11.27
2023-10-24T14:57:34.692Z,10.80
2023-10-24T14:59:36.718Z,11.47
2023-10-24T15:01:38.805Z,10.90
2023-10-24T15:03:41.759Z,12.17
2023-10-24T15:05:43.978Z,14.13
2023-10-24T15:07:46.215Z,14.03
2023-10-24T15:09:48.522Z,13.13
2023-10-24T15:11:51.337Z,13.43
2023-10-24T15:13:53.481Z,13.13
2023-10-24T15:15:55.897Z,12.93
2023-10-24T15:17:58.062Z,14.37
2023-10-24T15:20:00.264Z,13.77
2023-10-24T15:22:02.379Z,15.10
2023-10-24T15:24:08.227Z,14.20
2023-10-24T15:26:10.256Z,14.40
2023-10-24T15:28:12.370Z,14.10
2023-10-24T15:30:14.460Z,16.10
2023-10-24T15:32:18.314Z,14.30
2023-10-24T15:34:20.605Z,14.80
2023-10-24T15:36:22.637Z,15.67
2023-10-24T15:38:24.949Z,15.30
2023-10-24T15:40:27.514Z,15.97
2023-10-24T15:42:30.220Z,15.70
2023-10-24T15:44:32.360Z,15.13
2023-10-24T15:46:34.651Z,18.90
2023-10-24T15:48:36.921Z,21.60
2023-10-24T15:50:39.028Z,19.00
2023-10-24T15:52:41.073Z,19.90
2023-10-24T15:54:43.374Z,20.37
2023-10-24T15:56:45.576Z,18.97
2023-10-24T15:58:47.634Z,17.90
2023-10-24T16:00:49.963Z,19.10
2023-10-24T16:02:52.336Z,22.40
2023-10-24T16:04:55.062Z,25.20
2023-10-24T16:06:58.149Z,26.17
2023-10-24T16:09:00.258Z,24.80
2023-10-24T16:11:02.372Z,24.00
2023-10-24T16:13:04.459Z,23.07
2023-10-24T16:15:07.001Z,24.77
2023-10-24T16:17:10.114Z,22.87
2023-10-24T16:19:12.386Z,25.20
2023-10-24T16:21:14.449Z,25.47
2023-10-24T16:23:16.686Z,25.20
2023-10-24T16:25:19.000Z,26.07
2023-10-24T16:27:22.502Z,23.63
2023-10-24T16:29:24.639Z,26.90
2023-10-24T16:31:26.752Z,24.53
2023-10-24T16:33:30.445Z,25.10
2023-10-24T16:35:32.816Z,25.07
2023-10-24T16:37:35.454Z,24.90
2023-10-24T16:39:37.530Z,22.80
2023-10-24T16:41:39.579Z,26.70
2023-10-24T16:43:41.671Z,21.77
2023-10-24T16:45:52.225Z,24.37
2023-10-24T16:47:56.113Z,25.97
2023-10-24T16:49:58.805Z,23.20
2023-10-24T16:52:01.884Z,22.83
2023-10-24T16:54:03.998Z,26.33
2023-10-24T16:56:06.461Z,23.27
2023-10-24T16:58:08.658Z,21.90
2023-10-24T17:00:11.440Z,21.43
2023-10-24T17:02:13.713Z,22.07
2023-10-24T17:04:16.870Z,24.60
2023-10-24T17:06:19.883Z,23.73
2023-10-24T17:08:22.231Z,26.27
2023-10-24T17:10:24.434Z,25.57
2023-10-24T17:12:26.514Z,24.57
2023-10-24T17:14:28.702Z,25.50
2023-10-24T17:16:31.449Z,27.47
2023-10-24T17:18:33.661Z,22.60
2023-10-24T17:20:36.038Z,33.70
2023-10-24T17:22:38.297Z,36.67
2023-10-24T17:24:40.839Z,38.07
2023-10-24T17:26:43.145Z,37.00
2023-10-24T17:28:45.839Z,40.83
2023-10-24T17:30:48.160Z,37.53
2023-10-24T17:32:50.311Z,36.43
2023-10-24T17:34:52.497Z,29.30
2023-10-24T17:36:54.597Z,23.17
2023-10-24T17:38:56.660Z,24.17
2023-10-24T17:40:59.458Z,20.80
2023-10-24T17:43:01.660Z,20.90
2023-10-24T17:45:07.079Z,21.27
2023-10-24T17:47:10.311Z,22.93
2023-10-24T17:49:12.553Z,21.47
2023-10-24T17:51:14.598Z,20.70
2023-10-24T17:53:16.764Z,24.43
2023-10-24T17:55:18.840Z,24.30
2023-10-24T17:57:21.974Z,26.73
2023-10-24T17:59:24.881Z,31.70
2023-10-24T18:01:27.015Z,31.20
2023-10-24T18:03:29.259Z,30.20
2023-10-24T18:05:31.529Z,29.60
2023-10-24T18:07:34.479Z,30.70
2023-10-24T18:09:36.695Z,31.80
2023-10-24T18:11:38.894Z,30.70
2023-10-24T18:13:41.035Z,28.13
2023-10-24T18:15:43.190Z,26.97
2023-10-24T18:17:45.500Z,27.20
2023-10-24T18:19:49.060Z,28.40
2023-10-24T18:21:51.565Z,22.87
2023-10-24T18:23:53.764Z,22.33
2023-10-24T18:25:56.075Z,22.30
2023-10-24T18:27:59.217Z,22.20
2023-10-24T18:30:06.638Z,19.23
2023-10-24T18:32:08.835Z,19.20
2023-10-24T18:34:10.913Z,18.50
2023-10-24T18:36:13.232Z,19.93
2023-10-24T18:38:18.223Z,19.17
2023-10-24T18:40:22.100Z,18.87
2023-10-24T18:42:26.612Z,17.60
2023-10-24T18:44:28.772Z,17.30
2023-10-24T18:46:30.998Z,17.97
2023-10-24T18:48:33.535Z,17.70
2023-10-24T18:50:35.995Z,17.33
2023-10-24T18:52:38.190Z,17.63
2023-10-24T18:54:40.483Z,18.40
2023-10-24T18:56:43.090Z,17.00
2023-10-24T18:58:45.266Z,16.67
2023-10-24T19:00:47.500Z,17.80
2023-10-24T19:02:53.694Z,17.90
2023-10-24T19:04:56.658Z,18.10
2023-10-24T19:06:58.815Z,29.23
2023-10-24T19:09:01.452Z,33.93
2023-10-24T19:11:03.726Z,28.10
2023-10-24T19:13:06.195Z,32.23
2023-10-24T19:15:09.103Z,29.03
2023-10-24T19:17:11.626Z,23.07
2023-10-24T19:19:15.030Z,24.13
2023-10-24T19:21:17.838Z,20.40
2023-10-24T19:23:21.025Z,20.40
2023-10-24T19:25:23.508Z,20.60
2023-10-24T19:27:25.897Z,19.87
2023-10-24T19:29:28.263Z,17.10
2023-10-24T19:31:30.606Z,17.57
2023-10-24T19:33:33.501Z,16.87
2023-10-24T19:35:37.226Z,14.13
2023-10-24T19:37:40.172Z,15.40
2023-10-24T19:39:42.677Z,15.30
2023-10-24T19:41:45.136Z,13.80
2023-10-24T19:43:47.526Z,13.10
2023-10-24T19:45:49.802Z,13.03
2023-10-24T19:47:52.322Z,14.50
2023-10-24T19:49:56.449Z,14.60
2023-10-24T19:51:59.180Z,15.07
2023-10-24T19:54:02.819Z,14.27
2023-10-24T19:56:08.877Z,14.47
2023-10-24T19:58:11.734Z,16.70
2023-10-24T20:00:15.027Z,14.77
2023-10-24T20:02:18.763Z,16.23
2023-10-24T20:04:21.313Z,14.60
2023-10-24T20:06:33.036Z,14.27
2023-10-24T20:08:38.954Z,14.43
2023-10-24T20:11:39.768Z,16.07
2023-10-24T20:13:03.712Z,14.60
2023-10-24T20:15:07.201Z,14.80
2023-10-24T20:17:12.234Z,17.60
2023-10-24T20:19:14.861Z,17.20
2023-10-24T20:21:17.293Z,17.37
2023-10-24T20:23:19.651Z,18.27
2023-10-24T20:25:21.944Z,20.63
2023-10-24T20:27:25.031Z,20.87
2023-10-24T20:29:28.755Z,22.37
2023-10-24T20:31:31.098Z,21.43
2023-10-24T20:33:33.295Z,22.37
2023-10-24T20:35:35.417Z,23.70
2023-10-24T20:37:37.810Z,22.90
2023-10-24T20:39:39.923Z,25.60
2023-10-24T20:41:41.957Z,24.87
2023-10-24T20:43:44.091Z,25.20
2023-10-24T20:45:47.765Z,24.43
2023-10-24T20:47:50.030Z,26.80
2023-10-24T20:49:52.319Z,26.77
2023-10-24T20:51:54.443Z,24.00
2023-10-24T20:53:56.479Z,25.63
2023-10-24T20:55:59.055Z,25.30
2023-10-24T20:58:02.781Z,26.50
2023-10-24T21:00:06.532Z,26.60
2023-10-24T21:02:08.804Z,27.77
2023-10-24T21:04:12.568Z,27.23
2023-10-24T21:06:14.769Z,27.40
2023-10-24T21:08:16.900Z,26.50
2023-10-24T21:10:19.501Z,27.50
2023-10-24T21:12:21.684Z,27.87
2023-10-24T21:14:23.827Z,27.83
2023-10-24T21:16:25.899Z,27.10
2023-10-24T21:18:29.383Z,27.17
2023-10-24T21:20:31.736Z,29.90
2023-10-24T21:22:33.826Z,27.33
2023-10-24T21:24:37.005Z,27.80
2023-10-24T21:26:39.132Z,27.77
2023-10-24T21:28:42.443Z,29.37
2023-10-24T21:30:44.704Z,30.33
2023-10-24T21:32:47.478Z,30.07
2023-10-24T21:34:52.689Z,27.33
2023-10-24T21:36:54.870Z,29.70
2023-10-24T21:38:56.973Z,29.13
2023-10-24T21:40:59.162Z,29.53
2023-10-24T21:43:01.796Z,28.13
2023-10-24T21:45:04.496Z,28.60
2023-10-24T21:47:06.634Z,29.60
2023-10-24T21:49:08.922Z,28.97
2023-10-24T21:51:11.184Z,29.87
2023-10-24T21:53:13.191Z,31.37
2023-10-24T21:55:15.364Z,29.97
2023-10-24T21:57:17.527Z,29.13
2023-10-24T21:59:19.567Z,29.17
2023-10-24T22:01:22.228Z,29.30
2023-10-24T22:03:24.823Z,31.53
2023-10-24T22:05:27.050Z,30.80
2023-10-24T22:07:29.135Z,30.37
2023-10-24T22:09:31.229Z,31.40
2023-10-24T22:11:35.093Z,31.90
2023-10-24T22:13:37.173Z,29.87
2023-10-24T22:15:39.435Z,30.27
2023-10-24T22:17:43.346Z,30.10
2023-10-24T22:19:45.555Z,31.20
2023-10-24T22:21:48.100Z,31.90
2023-10-24T22:23:50.862Z,33.50
2023-10-24T22:25:55.642Z,30.37
2023-10-24T22:28:04.957Z,31.33
2023-10-24T22:30:08.683Z,30.70
2023-10-24T22:32:10.723Z,30.50
2023-10-24T22:34:12.938Z,31.37
2023-10-24T22:36:15.004Z,30.00
2023-10-24T22:38:17.033Z,32.87
2023-10-24T22:40:19.166Z,33.13
2023-10-24T22:42:21.204Z,33.17
2023-10-24T22:44:23.253Z,32.60
2023-10-24T22:46:25.385Z,30.00
2023-10-24T22:48:27.537Z,33.07
2023-10-24T22:50:29.769Z,31.67
2023-10-24T22:52:31.953Z,32.80
2023-10-24T22:54:33.982Z,33.33
2023-10-24T22:56:36.056Z,33.77
2023-10-24T22:58:38.197Z,32.07
2023-10-24T23:00:40.447Z,31.63
2023-10-24T23:02:42.642Z,31.40
2023-10-24T23:04:44.758Z,31.23
2023-10-24T23:06:46.906Z,30.20
2023-10-24T23:08:49.043Z,31.37
2023-10-24T23:10:51.151Z,32.10
2023-10-24T23:12:53.286Z,31.70
2023-10-24T23:14:56.694Z,29.40
2023-10-24T23:16:58.970Z,28.97
2023-10-24T23:19:01.413Z,29.10
2023-10-24T23:21:03.658Z,30.30
2023-10-24T23:23:05.745Z,28.90
2023-10-24T23:25:08.194Z,28.23
2023-10-24T23:27:10.221Z,27.70
2023-10-24T23:29:12.359Z,28.43
2023-10-24T23:31:14.484Z,27.97
2023-10-24T23:33:16.718Z,27.90
2023-10-24T23:35:18.834Z,27.67
2023-10-24T23:37:20.768Z,26.83
2023-10-24T23:39:22.896Z,25.70
2023-10-24T23:41:27.128Z,26.10
2023-10-24T23:43:29.224Z,25.40
2023-10-24T23:45:31.227Z,24.00
2023-10-24T23:47:33.650Z,24.47
2023-10-24T23:49:36.083Z,26.03
2023-10-24T23:51:38.091Z,24.07
2023-10-24T23:53:40.152Z,21.97
2023-10-24T23:55:43.762Z,23.60
2023-10-24T23:57:45.855Z,23.30
2023-10-24T23:59:47.884Z,24.60
